createdAt,value
2018-09-20T00:02:07.636Z,13.90
2018-09-20T00:04:36.148Z,13.80
2018-09-20T00:07:04.608Z,13.80
2018-09-20T00:09:33.117Z,13.80
2018-09-20T00:12:01.491Z,13.70
2018-09-20T00:14:30.017Z,13.70
2018-09-20T00:16:59.034Z,13.70
2018-09-20T00:19:27.435Z,13.60
2018-09-20T00:21:56.397Z,13.60
2018-09-20T00:24:24.976Z,13.60
2018-09-20T00:26:53.379Z,13.60
2018-09-20T00:29:29.558Z,13.60
2018-09-20T00:31:58.180Z,13.50
2018-09-20T00:34:26.608Z,13.50
2018-09-20T00:36:56.545Z,13.50
2018-09-20T00:39:24.985Z,13.50
2018-09-20T00:41:53.418Z,13.40
2018-09-20T00:44:21.844Z,13.40
2018-09-20T00:46:50.340Z,13.40
2018-09-20T00:49:19.062Z,13.40
2018-09-20T00:51:47.463Z,13.30
2018-09-20T00:54:17.143Z,13.30
2018-09-20T00:56:45.576Z,13.30
2018-09-20T00:59:14.100Z,13.30
2018-09-20T01:01:46.487Z,13.30
2018-09-20T01:04:15.614Z,13.20
2018-09-20T01:06:44.987Z,13.20
2018-09-20T01:09:13.467Z,13.20
2018-09-20T01:11:41.879Z,13.20
2018-09-20T01:14:10.683Z,13.20
2018-09-20T01:16:39.099Z,13.20
2018-09-20T01:19:07.500Z,13.20
2018-09-20T01:21:35.931Z,13.10
2018-09-20T01:24:04.719Z,13.10
2018-09-20T01:26:33.153Z,13.10
2018-09-20T01:29:01.608Z,13.00
2018-09-20T01:31:30.045Z,13.00
2018-09-20T01:33:58.461Z,13.00
2018-09-20T01:36:27.097Z,12.90
2018-09-20T01:38:55.777Z,12.90
2018-09-20T01:41:24.252Z,12.90
2018-09-20T01:43:52.649Z,12.90
2018-09-20T01:46:23.037Z,12.90
2018-09-20T01:48:54.132Z,12.90
2018-09-20T01:51:22.561Z,12.80
2018-09-20T01:53:51.284Z,12.80
2018-09-20T01:56:19.772Z,12.80
2018-09-20T01:58:48.216Z,12.80
2018-09-20T02:01:16.646Z,12.70
2018-09-20T02:03:45.521Z,12.70
2018-09-20T02:06:13.940Z,12.70
2018-09-20T02:08:44.064Z,12.80
2018-09-20T02:11:12.808Z,12.70
2018-09-20T02:17:04.323Z,12.70
2018-09-20T02:19:32.475Z,12.70
2018-09-20T02:24:41.039Z,12.60
2018-09-20T02:27:09.199Z,12.60
2018-09-20T02:29:37.367Z,12.50
2018-09-20T02:32:05.528Z,12.50
2018-09-20T02:34:33.707Z,12.50
2018-09-20T02:37:02.206Z,12.50
2018-09-20T02:39:30.592Z,12.50
2018-09-20T02:41:59.081Z,12.50
2018-09-20T02:44:27.756Z,12.40
2018-09-20T02:46:56.196Z,12.40
2018-09-20T02:49:25.444Z,12.40
2018-09-20T02:51:53.861Z,12.40
2018-09-20T02:54:22.296Z,12.40
2018-09-20T02:56:50.828Z,12.40
2018-09-20T03:01:58.611Z,12.40
2018-09-20T03:04:28.048Z,12.30
2018-09-20T03:06:57.157Z,12.30
2018-09-20T03:09:26.052Z,12.30
2018-09-20T03:11:54.760Z,12.30
2018-09-20T03:14:25.102Z,12.30
2018-09-20T03:16:53.669Z,12.20
2018-09-20T03:19:22.765Z,12.20
2018-09-20T03:21:51.421Z,12.20
2018-09-20T03:24:19.809Z,12.20
2018-09-20T03:26:48.218Z,12.10
2018-09-20T03:29:17.408Z,12.10
2018-09-20T03:31:46.216Z,12.10
2018-09-20T03:34:14.629Z,12.10
2018-09-20T03:36:43.382Z,12.10
2018-09-20T03:39:12.450Z,12.10
2018-09-20T03:41:41.465Z,12.00
2018-09-20T03:44:09.916Z,12.00
2018-09-20T03:46:38.412Z,12.00
2018-09-20T03:49:08.168Z,12.00
2018-09-20T03:51:36.581Z,12.00
2018-09-20T03:54:05.388Z,12.00
2018-09-20T03:56:34.009Z,12.00
2018-09-20T03:59:02.458Z,12.00
2018-09-20T04:01:30.876Z,12.00
2018-09-20T04:03:59.624Z,11.90
2018-09-20T04:06:28.096Z,11.90
2018-09-20T04:08:56.532Z,11.90
2018-09-20T04:11:25.203Z,11.90
2018-09-20T04:13:54.003Z,11.80
2018-09-20T04:16:22.885Z,11.80
2018-09-20T04:18:52.182Z,11.90
2018-09-20T04:21:24.940Z,11.80
2018-09-20T04:26:44.622Z,11.80
2018-09-20T04:29:12.983Z,11.80
2018-09-20T04:31:41.972Z,11.80
2018-09-20T04:34:11.021Z,11.80
2018-09-20T04:40:47.336Z,11.70
2018-09-20T04:43:15.483Z,11.80
2018-09-20T04:45:46.033Z,11.70
2018-09-20T04:48:14.492Z,11.70
2018-09-20T04:50:42.924Z,11.70
2018-09-20T04:53:11.528Z,11.80
2018-09-20T04:55:40.335Z,11.70
2018-09-20T04:58:08.897Z,11.80
2018-09-20T05:00:37.328Z,11.80
2018-09-20T05:03:06.418Z,11.80
2018-09-20T05:05:34.904Z,11.80
2018-09-20T05:08:03.752Z,11.80
2018-09-20T05:13:08.883Z,11.90
2018-09-20T05:15:37.301Z,12.00
2018-09-20T05:18:06.105Z,12.00
2018-09-20T05:20:34.552Z,12.10
2018-09-20T05:23:03.011Z,12.20
2018-09-20T05:25:31.799Z,12.50
2018-09-20T05:28:00.216Z,12.90
2018-09-20T05:30:28.949Z,13.10
2018-09-20T05:32:57.388Z,13.30
2018-09-20T05:35:26.090Z,13.80
2018-09-20T05:37:54.890Z,14.30
2018-09-20T05:40:23.374Z,15.10
2018-09-20T05:42:52.013Z,15.80
2018-09-20T05:45:20.566Z,16.60
2018-09-20T05:47:49.109Z,17.30
2018-09-20T05:50:18.069Z,18.10
2018-09-20T05:52:46.510Z,18.70
2018-09-20T05:55:15.077Z,19.40
2018-09-20T05:57:46.980Z,19.90
2018-09-20T06:00:15.713Z,20.40
2018-09-20T06:02:44.180Z,20.80
2018-09-20T06:05:12.632Z,21.00
2018-09-20T06:07:41.237Z,21.40
2018-09-20T06:10:10.056Z,22.00
2018-09-20T06:12:38.456Z,22.60
2018-09-20T06:15:06.889Z,23.30
2018-09-20T06:17:36.585Z,24.00
2018-09-20T06:20:05.040Z,24.80
2018-09-20T06:22:33.469Z,25.40
2018-09-20T06:25:02.065Z,25.90
2018-09-20T06:27:30.531Z,26.40
2018-09-20T06:29:58.937Z,27.00
2018-09-20T06:32:27.665Z,27.60
2018-09-20T06:34:56.114Z,28.20
2018-09-20T06:37:24.477Z,28.80
2018-09-20T06:39:54.143Z,28.80
2018-09-20T06:42:22.600Z,28.40
2018-09-20T06:44:51.749Z,28.70
2018-09-20T06:47:20.152Z,29.10
2018-09-20T06:49:48.790Z,29.60
2018-09-20T06:52:17.291Z,30.40
2018-09-20T06:54:45.756Z,31.10
2018-09-20T06:57:14.205Z,31.70
2018-09-20T06:59:42.992Z,32.30
2018-09-20T07:02:12.032Z,32.50
2018-09-20T07:04:40.313Z,33.00
2018-09-20T07:07:08.677Z,33.80
2018-09-20T07:09:37.757Z,34.30
2018-09-20T07:12:06.199Z,35.00
2018-09-20T07:14:34.920Z,35.40
2018-09-20T07:17:06.696Z,36.10
2018-09-20T07:19:35.534Z,36.50
2018-09-20T07:22:03.957Z,37.10
2018-09-20T07:24:32.412Z,37.70
2018-09-20T07:27:00.784Z,38.20
2018-09-20T07:29:35.089Z,38.70
2018-09-20T07:32:04.344Z,39.10
2018-09-20T07:34:32.896Z,39.70
2018-09-20T07:37:01.385Z,39.80
2018-09-20T07:39:29.664Z,39.90
2018-09-20T07:41:58.117Z,39.70
2018-09-20T07:44:26.470Z,39.60
2018-09-20T07:46:55.061Z,39.30
2018-09-20T07:49:23.460Z,39.30
2018-09-20T07:51:52.200Z,39.00
2018-09-20T07:54:20.741Z,38.80
2018-09-20T07:56:49.198Z,38.80
2018-09-20T07:59:17.551Z,38.50
2018-09-20T08:01:46.244Z,38.10
2018-09-20T08:04:15.153Z,37.60
2018-09-20T08:06:43.643Z,37.40
2018-09-20T08:09:13.188Z,37.30
2018-09-20T08:11:41.776Z,37.10
2018-09-20T08:14:10.675Z,36.90
2018-09-20T08:16:40.665Z,36.70
2018-09-20T08:19:09.432Z,36.60
2018-09-20T08:21:40.091Z,36.70
2018-09-20T08:24:08.399Z,37.00
2018-09-20T08:26:37.425Z,37.30
2018-09-20T08:29:06.242Z,37.20
2018-09-20T08:31:34.653Z,37.00
2018-09-20T08:34:03.102Z,36.90
2018-09-20T08:36:33.068Z,36.70
2018-09-20T08:39:02.589Z,36.40
2018-09-20T08:41:31.048Z,36.00
2018-09-20T08:43:59.432Z,36.00
2018-09-20T08:46:28.152Z,36.20
2018-09-20T08:48:56.633Z,36.60
2018-09-20T08:51:25.078Z,36.30
2018-09-20T08:53:53.819Z,36.60
2018-09-20T08:56:23.463Z,36.90
2018-09-20T08:58:52.605Z,37.30
2018-09-20T09:01:21.101Z,37.60
2018-09-20T09:03:49.502Z,37.60
2018-09-20T09:06:17.909Z,37.60
2018-09-20T09:08:46.445Z,38.10
2018-09-20T09:11:14.966Z,38.00
2018-09-20T09:13:43.680Z,38.40
2018-09-20T09:16:12.153Z,38.50
2018-09-20T09:18:41.361Z,39.00
2018-09-20T09:21:09.727Z,39.70
2018-09-20T09:23:38.144Z,40.00
2018-09-20T09:26:06.565Z,40.30
2018-09-20T09:28:35.729Z,40.60
2018-09-20T09:31:04.166Z,40.00
2018-09-20T09:33:32.637Z,39.30
2018-09-20T09:36:01.060Z,39.30
2018-09-20T09:38:29.462Z,39.30
2018-09-20T09:40:57.860Z,39.00
2018-09-20T09:43:26.456Z,38.60
2018-09-20T09:45:54.913Z,38.80
2018-09-20T09:48:23.746Z,38.50
2018-09-20T09:50:55.689Z,38.30
2018-09-20T09:53:26.916Z,38.60
2018-09-20T09:55:55.608Z,39.10
2018-09-20T09:58:23.992Z,39.10
2018-09-20T10:00:54.653Z,38.30
2018-09-20T10:06:01.934Z,37.80
2018-09-20T10:08:30.501Z,37.80
2018-09-20T10:10:59.151Z,37.70
2018-09-20T10:13:27.982Z,37.60
2018-09-20T10:15:56.468Z,37.20
2018-09-20T10:18:24.881Z,37.00
2018-09-20T10:20:55.380Z,37.10
2018-09-20T10:23:24.276Z,37.00
2018-09-20T10:25:52.689Z,36.70
2018-09-20T10:28:21.129Z,36.20
2018-09-20T10:30:49.789Z,35.60
2018-09-20T10:33:18.288Z,35.20
2018-09-20T10:35:47.063Z,34.80
2018-09-20T10:38:15.482Z,34.50
2018-09-20T10:40:43.865Z,34.70
2018-09-20T10:43:12.325Z,35.10
2018-09-20T10:45:40.775Z,35.30
2018-09-20T10:48:09.628Z,35.10
2018-09-20T10:50:38.023Z,35.00
2018-09-20T10:53:06.389Z,35.20
2018-09-20T10:55:35.441Z,35.50
2018-09-20T10:58:03.840Z,35.50
2018-09-20T11:00:32.334Z,35.30
2018-09-20T11:03:01.439Z,35.00
2018-09-20T11:05:29.896Z,34.20
2018-09-20T11:07:58.312Z,33.70
2018-09-20T11:10:27.552Z,33.30
2018-09-20T11:12:56.153Z,33.00
2018-09-20T11:15:24.584Z,33.00
2018-09-20T11:17:53.069Z,33.00
2018-09-20T11:20:21.839Z,32.70
2018-09-20T11:22:50.588Z,32.20
2018-09-20T11:27:57.599Z,31.20
2018-09-20T11:30:25.759Z,30.90
2018-09-20T11:32:54.015Z,30.80
2018-09-20T11:35:22.299Z,30.90
2018-09-20T11:37:50.754Z,31.30
2018-09-20T11:40:18.908Z,32.00
2018-09-20T11:42:47.108Z,32.30
2018-09-20T11:45:15.315Z,32.50
2018-09-20T11:47:43.499Z,32.50
2018-09-20T11:50:13.162Z,32.40
2018-09-20T11:52:45.397Z,32.20
2018-09-20T11:55:13.760Z,32.30
2018-09-20T11:57:42.184Z,32.50
2018-09-20T12:00:12.585Z,32.60
2018-09-20T12:02:41.020Z,32.70
2018-09-20T12:05:09.441Z,32.90
2018-09-20T12:07:38.049Z,33.00
2018-09-20T12:10:06.481Z,32.80
2018-09-20T12:12:35.368Z,32.30
2018-09-20T12:15:04.013Z,32.00
2018-09-20T12:17:32.478Z,31.60
2018-09-20T12:20:01.079Z,31.50
2018-09-20T12:22:29.359Z,31.50
2018-09-20T12:24:59.195Z,31.40
2018-09-20T12:27:27.595Z,31.50
2018-09-20T12:29:56.905Z,31.60
2018-09-20T12:32:25.404Z,31.70
2018-09-20T12:34:53.804Z,31.90
2018-09-20T12:37:26.393Z,32.10
2018-09-20T12:39:54.788Z,32.00
2018-09-20T12:42:23.795Z,31.60
2018-09-20T12:44:52.997Z,31.30
2018-09-20T12:47:21.840Z,31.30
2018-09-20T12:49:50.383Z,31.40
2018-09-20T12:52:18.848Z,31.60
2018-09-20T12:54:47.645Z,31.70
2018-09-20T12:57:16.453Z,31.80
2018-09-20T12:59:45.284Z,31.70
2018-09-20T13:02:13.765Z,31.30
2018-09-20T13:04:42.139Z,31.00
2018-09-20T13:07:10.560Z,30.60
2018-09-20T13:09:38.961Z,30.00
2018-09-20T13:12:07.893Z,29.60
2018-09-20T13:14:36.323Z,29.40
2018-09-20T13:17:06.094Z,29.30
2018-09-20T13:19:36.677Z,29.30
2018-09-20T13:22:05.175Z,29.20
2018-09-20T13:24:33.661Z,29.10
2018-09-20T13:27:02.201Z,29.10
2018-09-20T13:29:30.799Z,28.90
2018-09-20T13:31:59.520Z,28.50
2018-09-20T13:34:28.380Z,28.30
2018-09-20T13:36:56.853Z,28.20
2018-09-20T13:39:25.802Z,28.20
2018-09-20T13:41:54.218Z,28.20
2018-09-20T13:44:22.697Z,28.20
2018-09-20T13:46:51.220Z,28.20
2018-09-20T13:49:21.418Z,27.90
2018-09-20T13:51:49.919Z,27.70
2018-09-20T13:54:18.353Z,27.60
2018-09-20T13:56:47.112Z,27.40
2018-09-20T13:59:15.604Z,27.40
2018-09-20T14:01:44.401Z,27.40
2018-09-20T14:04:13.128Z,27.40
2018-09-20T14:06:42.389Z,27.40
2018-09-20T14:09:11.916Z,27.40
2018-09-20T14:11:40.776Z,27.40
2018-09-20T14:14:10.227Z,27.40
2018-09-20T14:16:38.582Z,27.40
2018-09-20T14:19:07.594Z,27.30
2018-09-20T14:21:36.408Z,27.30
2018-09-20T14:24:04.848Z,27.30
2018-09-20T14:26:33.218Z,27.30
2018-09-20T14:29:01.712Z,27.20
2018-09-20T14:31:30.525Z,27.10
2018-09-20T14:33:58.920Z,27.00
2018-09-20T14:36:27.953Z,27.00
2018-09-20T14:38:56.713Z,26.80
2018-09-20T14:41:25.816Z,26.80
2018-09-20T14:43:54.465Z,26.80
2018-09-20T14:46:23.128Z,26.70
2018-09-20T14:48:51.622Z,26.60
2018-09-20T14:51:20.024Z,26.50
2018-09-20T14:53:48.716Z,26.30
2018-09-20T14:56:17.326Z,26.20
2018-09-20T14:58:47.537Z,26.00
2018-09-20T15:01:16.065Z,25.90
2018-09-20T15:03:44.464Z,25.90
2018-09-20T15:06:15.329Z,25.90
2018-09-20T15:08:43.717Z,25.90
2018-09-20T15:11:12.266Z,25.90
2018-09-20T15:13:40.633Z,25.90
2018-09-20T15:16:09.229Z,25.90
2018-09-20T15:18:37.595Z,25.90
2018-09-20T15:21:06.049Z,25.90
2018-09-20T15:23:35.222Z,25.90
2018-09-20T15:26:04.406Z,25.90
2018-09-20T15:28:32.805Z,25.80
2018-09-20T15:31:01.267Z,25.80
2018-09-20T15:33:29.692Z,25.70
2018-09-20T15:35:58.332Z,25.60
2018-09-20T15:38:26.705Z,25.60
2018-09-20T15:40:55.142Z,25.50
2018-09-20T15:43:23.485Z,25.50
2018-09-20T15:45:52.397Z,25.50
2018-09-20T15:48:21.010Z,25.50
2018-09-20T15:50:49.868Z,25.50
2018-09-20T15:53:18.940Z,25.50
2018-09-20T15:55:47.839Z,25.50
2018-09-20T15:58:16.623Z,25.50
2018-09-20T16:00:45.959Z,25.40
2018-09-20T16:03:14.413Z,25.40
2018-09-20T16:05:45.217Z,25.50
2018-09-20T16:08:13.864Z,25.40
2018-09-20T16:10:42.718Z,25.30
2018-09-20T16:13:13.932Z,25.20
2018-09-20T16:15:44.530Z,25.10
2018-09-20T16:18:16.423Z,25.00
2018-09-20T16:20:45.148Z,25.00
2018-09-20T16:23:15.013Z,24.90
2018-09-20T16:25:43.661Z,24.80
2018-09-20T16:28:19.722Z,24.70
2018-09-20T16:31:12.850Z,24.60
2018-09-20T16:34:24.943Z,24.60
2018-09-20T16:37:11.385Z,24.50
2018-09-20T16:39:42.156Z,24.40
2018-09-20T16:42:12.401Z,24.30
2018-09-20T16:44:40.808Z,24.10
2018-09-20T16:47:09.281Z,24.00
2018-09-20T16:49:39.517Z,23.80
2018-09-20T16:52:07.873Z,23.70
2018-09-20T16:54:38.164Z,23.50
2018-09-20T16:57:06.650Z,23.40
2018-09-20T16:59:35.374Z,23.20
2018-09-20T17:02:04.053Z,23.10
2018-09-20T17:04:34.194Z,23.00
2018-09-20T17:07:02.699Z,22.80
2018-09-20T17:09:31.196Z,22.70
2018-09-20T17:11:59.693Z,22.60
2018-09-20T17:14:28.368Z,22.40
2018-09-20T17:16:57.257Z,22.30
2018-09-20T17:22:04.368Z,22.10
2018-09-20T17:24:33.064Z,22.00
2018-09-20T17:27:01.807Z,21.90
2018-09-20T17:29:31.241Z,21.90
2018-09-20T17:31:59.929Z,21.80
2018-09-20T17:34:28.586Z,21.70
2018-09-20T17:36:58.364Z,21.60
2018-09-20T17:39:27.328Z,21.50
2018-09-20T17:41:56.572Z,21.40
2018-09-20T17:44:25.420Z,21.30
2018-09-20T17:46:54.195Z,21.20
2018-09-20T17:49:22.861Z,21.10
2018-09-20T17:51:55.085Z,21.10
2018-09-20T17:54:24.207Z,20.90
2018-09-20T17:56:53.402Z,20.90
2018-09-20T17:59:22.378Z,20.70
2018-09-20T18:01:51.045Z,20.60
2018-09-20T18:04:19.777Z,20.60
2018-09-20T18:06:48.473Z,20.50
2018-09-20T18:09:17.068Z,20.40
2018-09-20T18:11:46.176Z,20.30
2018-09-20T18:14:14.752Z,20.30
2018-09-20T18:16:44.211Z,20.20
2018-09-20T18:19:14.679Z,20.20
2018-09-20T18:21:43.523Z,20.10
2018-09-20T18:24:12.800Z,20.00
2018-09-20T18:26:41.557Z,19.90
2018-09-20T18:29:10.364Z,19.80
2018-09-20T18:31:39.548Z,19.80
2018-09-20T18:34:08.032Z,19.70
2018-09-20T18:36:36.500Z,19.60
2018-09-20T18:39:07.896Z,19.50
2018-09-20T18:41:36.335Z,19.50
2018-09-20T18:46:43.018Z,19.30
2018-09-20T18:49:11.437Z,19.30
2018-09-20T18:51:39.944Z,19.20
2018-09-20T18:54:08.429Z,19.20
2018-09-20T18:56:37.415Z,19.10
2018-09-20T18:59:05.702Z,19.00
2018-09-20T19:01:34.288Z,19.00
2018-09-20T19:04:02.947Z,18.90
2018-09-20T19:06:31.566Z,18.90
2018-09-20T19:09:00.630Z,18.80
2018-09-20T19:11:29.061Z,18.70
2018-09-20T19:13:57.549Z,18.70
2018-09-20T19:16:26.388Z,18.60
2018-09-20T19:18:54.779Z,18.50
2018-09-20T19:21:23.213Z,18.50
2018-09-20T19:23:52.217Z,18.40
2018-09-20T19:26:21.109Z,18.40
2018-09-20T19:28:49.569Z,18.30
2018-09-20T19:31:18.384Z,18.30
2018-09-20T19:33:47.712Z,18.20
2018-09-20T19:36:18.365Z,18.20
2018-09-20T19:38:46.958Z,18.10
2018-09-20T19:41:15.728Z,18.10
2018-09-20T19:43:44.293Z,18.00
2018-09-20T19:46:13.768Z,18.00
2018-09-20T19:48:42.208Z,17.90
2018-09-20T19:51:10.582Z,17.80
2018-09-20T19:53:39.252Z,17.80
2018-09-20T19:56:07.956Z,17.70
2018-09-20T19:58:37.626Z,17.70
2018-09-20T20:01:06.954Z,17.70
2018-09-20T20:03:35.429Z,17.70
2018-09-20T20:06:04.014Z,17.60
2018-09-20T20:08:32.437Z,17.50
2018-09-20T20:11:01.631Z,17.50
2018-09-20T20:13:30.138Z,17.40
2018-09-20T20:15:58.614Z,17.40
2018-09-20T20:18:28.125Z,17.30
2018-09-20T20:20:56.586Z,17.30
2018-09-20T20:23:25.440Z,17.30
2018-09-20T20:25:54.795Z,17.20
2018-09-20T20:28:25.640Z,17.20
2018-09-20T20:30:54.928Z,17.10
2018-09-20T20:33:23.360Z,17.00
2018-09-20T20:35:51.801Z,17.00
2018-09-20T20:38:20.402Z,17.00
2018-09-20T20:40:48.784Z,16.90
2018-09-20T20:43:17.865Z,16.90
2018-09-20T20:45:46.305Z,16.90
2018-09-20T20:48:16.375Z,16.80
2018-09-20T20:50:45.424Z,16.80
2018-09-20T20:53:13.877Z,16.80
2018-09-20T20:55:42.809Z,16.80
2018-09-20T20:58:12.233Z,16.70
2018-09-20T21:00:40.624Z,16.70
2018-09-20T21:03:09.484Z,16.70
2018-09-20T21:05:37.944Z,16.60
2018-09-20T21:08:06.684Z,16.60
2018-09-20T21:10:35.060Z,16.50
2018-09-20T21:13:03.456Z,16.50
2018-09-20T21:15:32.017Z,16.50
2018-09-20T21:20:54.785Z,16.40
2018-09-20T21:23:23.238Z,16.40
2018-09-20T21:28:29.304Z,16.30
2018-09-20T21:30:57.627Z,16.30
2018-09-20T21:33:25.843Z,16.30
2018-09-20T21:35:54.382Z,16.20
2018-09-20T21:38:22.804Z,16.20
2018-09-20T21:40:51.865Z,16.10
2018-09-20T21:43:20.492Z,16.00
2018-09-20T21:45:49.821Z,16.00
2018-09-20T21:48:18.604Z,16.00
2018-09-20T21:50:47.688Z,16.00
2018-09-20T21:53:16.465Z,16.00
2018-09-20T21:55:44.960Z,15.90
2018-09-20T21:58:15.560Z,15.90
2018-09-20T22:00:45.068Z,15.80
2018-09-20T22:03:13.449Z,15.80
2018-09-20T22:05:41.890Z,15.80
2018-09-20T22:08:10.880Z,15.80
2018-09-20T22:10:39.615Z,15.80
2018-09-20T22:13:08.644Z,15.70
2018-09-20T22:15:37.296Z,15.70
2018-09-20T22:18:06.192Z,15.70
2018-09-20T22:20:34.627Z,15.60
2018-09-20T22:23:03.365Z,15.60
2018-09-20T22:25:32.893Z,15.50
2018-09-20T22:28:02.774Z,15.50
2018-09-20T22:30:31.536Z,15.50
2018-09-20T22:32:59.963Z,15.50
2018-09-20T22:35:28.577Z,15.40
2018-09-20T22:37:57.041Z,15.40
2018-09-20T22:40:25.516Z,15.40
2018-09-20T22:42:54.628Z,15.30
2018-09-20T22:45:23.898Z,15.30
2018-09-20T22:47:52.770Z,15.20
2018-09-20T22:50:21.160Z,15.20
2018-09-20T22:52:49.592Z,15.20
2018-09-20T22:55:18.304Z,15.10
2018-09-20T22:57:46.692Z,15.10
2018-09-20T23:00:19.880Z,15.10
2018-09-20T23:02:48.432Z,15.10
2018-09-20T23:05:17.270Z,15.10
2018-09-20T23:07:45.928Z,15.10
2018-09-20T23:10:18.184Z,15.10
2018-09-20T23:12:47.196Z,15.00
2018-09-20T23:15:17.593Z,15.00
2018-09-20T23:17:46.825Z,15.00
2018-09-20T23:20:15.620Z,14.90
2018-09-20T23:22:44.612Z,14.90
2018-09-20T23:25:16.537Z,14.90
2018-09-20T23:27:44.991Z,14.80
2018-09-20T23:30:13.957Z,14.80
2018-09-20T23:32:42.417Z,14.80
2018-09-20T23:35:10.831Z,14.80
2018-09-20T23:37:39.196Z,14.70
2018-09-20T23:40:07.669Z,14.70
2018-09-20T23:42:36.060Z,14.60
2018-09-20T23:45:04.493Z,14.60
2018-09-20T23:50:09.996Z,14.50
2018-09-20T23:52:38.540Z,14.50
2018-09-20T23:55:07.013Z,14.50
2018-09-20T23:57:35.404Z,14.50
